Time;durP1;ratioP1;P1;durP2;ratioP2;P2;SDS_P1;SDS_P2;PMS_P1;PMS_P2;Temp;Humidity;BMP_temperature;BMP_pressure;BME280_temperature;BME280_humidity;BME280_pressure;Samples;Min_cycle;Max_cycle;Signal;HPM_P1;HPM_P2
2023/05/23 00:00:59;;;;;;;33.67;23.77;;;;;;;13.68;100.00;101729.69;5076303;28;20112;-66
2023/05/23 00:03:25;;;;;;;35.30;24.52;;;;;;;13.70;100.00;101738.56;5075988;28;20379;-67
2023/05/23 00:05:50;;;;;;;35.08;23.20;;;;;;;13.77;100.00;101732.38;5076274;28;20025;-65
2023/05/23 00:08:16;;;;;;;32.75;22.52;;;;;;;13.89;100.00;101732.47;5077816;28;20032;-68
2023/05/23 00:10:42;;;;;;;32.67;22.70;;;;;;;13.93;100.00;101734.22;5076410;28;20033;-66
2023/05/23 00:13:08;;;;;;;32.58;22.33;;;;;;;13.85;100.00;101729.75;5075582;28;20797;-68
2023/05/23 00:15:36;;;;;;;32.15;22.17;;;;;;;13.93;100.00;101728.91;5078779;28;20040;-68
2023/05/23 00:18:02;;;;;;;33.47;21.85;;;;;;;13.85;100.00;101737.72;5077974;28;20118;-69
2023/05/23 00:20:28;;;;;;;31.67;21.40;;;;;;;13.83;100.00;101740.38;5079018;28;20494;-69
2023/05/23 00:22:57;;;;;;;31.95;22.20;;;;;;;13.90;100.00;101738.66;5080248;28;20020;-69
2023/05/23 00:25:33;;;;;;;31.85;22.20;;;;;;;13.97;100.00;101743.13;5079546;28;20527;-69
2023/05/23 00:28:03;;;;;;;30.67;21.23;;;;;;;13.99;100.00;101744.00;5079234;28;20038;-69
2023/05/23 00:30:32;;;;;;;30.38;20.73;;;;;;;13.91;100.00;101740.44;5079708;28;20032;-68
2023/05/23 00:32:59;;;;;;;29.90;20.02;;;;;;;13.94;100.00;101748.44;5080264;28;20033;-69
2023/05/23 00:35:24;;;;;;;30.55;20.23;;;;;;;13.92;100.00;101750.19;5080399;28;20031;-69
2023/05/23 00:37:50;;;;;;;28.92;19.83;;;;;;;13.94;100.00;101751.97;5079382;28;20428;-68
2023/05/23 00:40:19;;;;;;;27.52;18.33;;;;;;;13.94;100.00;101749.31;5078514;28;20036;-69
2023/05/23 00:42:45;;;;;;;27.77;17.60;;;;;;;14.07;100.00;101752.03;5082711;28;20447;-69
2023/05/23 00:45:14;;;;;;;26.65;17.38;;;;;;;14.04;100.00;101744.94;5082190;28;20108;-69
2023/05/23 00:47:40;;;;;;;26.05;16.52;;;;;;;14.09;100.00;101748.47;5081631;28;20056;-69
2023/05/23 00:50:08;;;;;;;27.05;15.82;;;;;;;14.13;100.00;101760.91;5078844;28;20020;-69
2023/05/23 00:52:34;;;;;;;26.15;15.93;;;;;;;14.18;100.00;101750.28;5079083;28;20059;-69
2023/05/23 00:54:59;;;;;;;26.33;16.48;;;;;;;14.23;100.00;101753.00;5080878;28;20056;-68
2023/05/23 00:57:25;;;;;;;27.10;16.45;;;;;;;14.18;100.00;101744.97;5080807;28;20522;-68
2023/05/23 00:59:52;;;;;;;26.52;16.58;;;;;;;14.21;100.00;101758.31;5078626;28;20051;-68
2023/05/23 01:02:17;;;;;;;26.38;16.10;;;;;;;14.17;100.00;101750.28;5076411;28;20077;-69
2023/05/23 01:04:43;;;;;;;26.92;16.25;;;;;;;14.21;100.00;101755.66;5077075;28;20037;-69
2023/05/23 01:07:09;;;;;;;27.10;16.02;;;;;;;14.16;100.00;101749.41;5081767;28;20028;-69
2023/05/23 01:09:35;;;;;;;26.17;15.77;;;;;;;14.10;100.00;101760.91;5081517;28;20032;-69
2023/05/23 01:12:06;;;;;;;26.60;15.65;;;;;;;13.93;100.00;101765.25;5080047;28;20074;-69
2023/05/23 01:15:00;;;;;;;26.42;15.20;;;;;;;14.03;100.00;101763.53;5077295;28;20032;-69
2023/05/23 01:17:44;;;;;;;25.85;15.00;;;;;;;13.85;100.00;101759.91;5075376;28;20036;-69
2023/05/23 01:20:21;;;;;;;26.10;15.48;;;;;;;13.90;100.00;101763.47;5078265;28;20054;-69
2023/05/23 01:23:01;;;;;;;25.65;15.18;;;;;;;13.99;100.00;101767.06;5080242;28;20115;-69
2023/05/23 01:26:02;;;;;;;25.70;15.02;;;;;;;13.89;100.00;101764.38;5079737;28;20032;-69
2023/05/23 01:28:36;;;;;;;27.10;15.10;;;;;;;13.91;100.00;101770.56;5082398;28;20029;-69
2023/05/23 01:31:03;;;;;;;26.73;15.07;;;;;;;13.93;100.00;101774.09;5078454;28;20036;-68
2023/05/23 01:33:31;;;;;;;27.33;14.50;;;;;;;13.91;100.00;101770.56;5076864;28;20028;-69
2023/05/23 01:36:00;;;;;;;26.52;14.93;;;;;;;13.88;100.00;101773.22;5076898;28;20171;-69
2023/05/23 01:38:25;;;;;;;27.40;14.57;;;;;;;13.85;100.00;101778.50;5080752;28;20118;-69
2023/05/23 01:40:50;;;;;;;28.83;15.18;;;;;;;13.85;100.00;101781.16;5078464;28;20119;-69
2023/05/23 01:43:16;;;;;;;28.50;15.07;;;;;;;13.84;100.00;101781.16;5080251;28;20040;-69
2023/05/23 01:45:42;;;;;;;28.52;15.35;;;;;;;13.83;100.00;101776.72;5078860;28;20032;-69
2023/05/23 01:48:09;;;;;;;28.80;15.27;;;;;;;13.79;100.00;101781.13;5073989;28;20024;-69
2023/05/23 01:50:35;;;;;;;26.98;15.20;;;;;;;13.83;100.00;101785.56;5076926;28;20112;-69
2023/05/23 01:53:01;;;;;;;27.20;15.82;;;;;;;13.76;100.00;101791.72;5079371;28;20041;-69
2023/05/23 01:55:27;;;;;;;29.23;16.35;;;;;;;13.71;100.00;101790.81;5077942;28;20530;-69
2023/05/23 01:57:55;;;;;;;31.10;17.73;;;;;;;13.74;100.00;101789.06;5081042;28;20236;-68
2023/05/23 02:00:21;;;;;;;29.75;17.75;;;;;;;13.63;100.00;101784.56;5077210;28;20082;-69
2023/05/23 02:02:46;;;;;;;30.95;17.38;;;;;;;13.69;100.00;101785.50;5081326;28;20025;-69
2023/05/23 02:05:12;;;;;;;29.65;17.95;;;;;;;13.56;100.00;101796.94;5076309;28;20483;-69
2023/05/23 02:07:37;;;;;;;29.75;17.10;;;;;;;13.57;100.00;101794.28;5080051;28;20043;-69
2023/05/23 02:10:04;;;;;;;28.45;17.63;;;;;;;13.64;100.00;101792.53;5080678;28;20031;-69
2023/05/23 02:12:29;;;;;;;30.35;18.08;;;;;;;13.71;100.00;101798.78;5080546;28;20024;-69
2023/05/23 02:14:55;;;;;;;31.08;17.65;;;;;;;13.60;100.00;101799.63;5075459;28;20387;-69
2023/05/23 02:17:23;;;;;;;31.48;18.38;;;;;;;13.55;100.00;101804.00;5079497;28;20029;-69
2023/05/23 02:19:48;;;;;;;31.83;18.30;;;;;;;13.59;100.00;101803.13;5074849;28;20501;-69
2023/05/23 02:22:14;;;;;;;31.10;18.63;;;;;;;13.59;100.00;101805.78;5078072;28;20064;-69
2023/05/23 02:24:39;;;;;;;31.05;17.63;;;;;;;13.67;100.00;101800.53;5074918;28;20028;-69
2023/05/23 02:27:05;;;;;;;31.13;18.33;;;;;;;13.55;100.00;101808.44;5074898;28;20031;-69
2023/05/23 02:29:30;;;;;;;32.42;18.58;;;;;;;13.55;100.00;101809.31;5080222;28;20097;-69
2023/05/23 02:31:55;;;;;;;33.47;18.00;;;;;;;13.57;100.00;101812.88;5080954;28;20035;-69
2023/05/23 02:34:21;;;;;;;32.00;18.42;;;;;;;13.55;100.00;101811.97;5079244;28;20521;-69
2023/05/23 02:36:46;;;;;;;32.30;17.73;;;;;;;13.52;100.00;101814.59;5079935;28;20087;-69
2023/05/23 02:39:12;;;;;;;32.05;17.80;;;;;;;13.40;100.00;101803.91;5080101;28;20365;-69
2023/05/23 02:41:37;;;;;;;30.70;18.05;;;;;;;13.36;100.00;101810.94;5076283;28;20158;-68
2023/05/23 02:44:02;;;;;;;32.28;17.75;;;;;;;13.42;100.00;101812.75;5079595;28;20070;-69
2023/05/23 02:46:28;;;;;;;30.48;17.10;;;;;;;13.39;100.00;101812.72;5076176;28;20028;-69
2023/05/23 02:48:53;;;;;;;31.33;17.23;;;;;;;13.41;100.00;101816.28;5076438;28;20028;-69
2023/05/23 02:51:18;;;;;;;29.30;16.23;;;;;;;13.50;100.00;101812.78;5076454;28;20032;-69
2023/05/23 02:53:44;;;;;;;29.90;15.80;;;;;;;13.49;100.00;101819.88;5077387;28;20024;-69
2023/05/23 02:56:10;;;;;;;27.60;14.43;;;;;;;13.47;100.00;101815.44;5080011;28;20462;-69
2023/05/23 02:58:35;;;;;;;27.92;14.27;;;;;;;13.42;100.00;101823.38;5079684;28;20033;-69
2023/05/23 03:01:02;;;;;;;25.15;13.85;;;;;;;13.41;100.00;101817.19;5077042;28;20154;-69
2023/05/23 03:03:27;;;;;;;26.38;12.95;;;;;;;13.51;100.00;101820.78;5077411;28;20463;-69
2023/05/23 03:05:53;;;;;;;25.65;12.35;;;;;;;13.46;100.00;101819.88;5080931;28;20033;-69
2023/05/23 03:08:19;;;;;;;27.20;12.65;;;;;;;13.42;100.00;101810.97;5078659;28;20025;-69
2023/05/23 03:10:44;;;;;;;24.92;12.05;;;;;;;13.39;100.00;101818.03;5078412;28;20077;-69
2023/05/23 03:13:10;;;;;;;23.70;11.27;;;;;;;13.42;100.00;101812.75;5079420;28;20471;-69
2023/05/23 03:15:35;;;;;;;22.65;10.60;;;;;;;13.47;100.00;101819.00;5076718;28;20368;-69
2023/05/23 03:18:01;;;;;;;22.58;9.98;;;;;;;13.39;100.00;101812.72;5075360;28;20119;-69
2023/05/23 03:20:26;;;;;;;21.80;9.48;;;;;;;13.49;100.00;101829.63;5077377;28;20040;-69
2023/05/23 03:22:51;;;;;;;21.48;9.23;;;;;;;13.42;100.00;101812.75;5076109;28;20028;-69
2023/05/23 03:25:16;;;;;;;21.48;9.27;;;;;;;13.38;100.00;101814.50;5075944;28;20040;-69
2023/05/23 03:27:42;;;;;;;20.02;8.35;;;;;;;13.35;100.00;101811.81;5075414;28;20023;-69
2023/05/23 03:30:08;;;;;;;19.63;8.05;;;;;;;13.37;100.00;101822.47;5076079;28;20115;-69
2023/05/23 03:32:33;;;;;;;19.83;8.25;;;;;;;13.36;100.00;101825.97;5076784;28;20033;-69
2023/05/23 03:34:58;;;;;;;20.13;8.32;;;;;;;13.33;100.00;101828.59;5078121;28;20033;-69
2023/05/23 03:37:24;;;;;;;19.55;8.18;;;;;;;13.36;100.00;101823.31;5077716;28;20025;-69
2023/05/23 03:39:49;;;;;;;20.08;7.97;;;;;;;13.35;100.00;101830.41;5077607;28;20360;-69
2023/05/23 03:42:15;;;;;;;20.67;8.38;;;;;;;13.33;100.00;101823.28;5078668;28;20043;-69
2023/05/23 03:44:40;;;;;;;20.67;8.35;;;;;;;13.32;100.00;101829.44;5078772;28;20117;-69
2023/05/23 03:47:05;;;;;;;20.58;8.52;;;;;;;13.33;100.00;101824.16;5077161;28;20023;-69
2023/05/23 03:49:31;;;;;;;20.73;8.68;;;;;;;13.35;100.00;101821.53;5076701;28;20710;-69
2023/05/23 03:51:56;;;;;;;21.83;8.80;;;;;;;13.35;100.00;101833.06;5076755;28;20040;-69
2023/05/23 03:54:22;;;;;;;20.92;8.82;;;;;;;13.38;100.00;101832.19;5076254;28;20170;-68
2023/05/23 03:56:47;;;;;;;21.70;9.30;;;;;;;13.33;100.00;101829.47;5075529;28;20060;-69
2023/05/23 03:59:12;;;;;;;20.35;8.95;;;;;;;13.24;100.00;101826.72;5080378;28;20487;-69
2023/05/23 04:01:38;;;;;;;21.65;9.02;;;;;;;13.30;100.00;101837.41;5080486;28;20028;-69
2023/05/23 04:04:04;;;;;;;22.55;9.00;;;;;;;13.34;100.00;101835.66;5082795;28;20029;-69
2023/05/23 04:06:30;;;;;;;21.13;9.10;;;;;;;13.39;100.00;101840.16;5079436;28;20025;-69
2023/05/23 04:08:56;;;;;;;21.52;9.05;;;;;;;13.38;100.00;101840.16;5080358;28;20418;-69
2023/05/23 04:11:21;;;;;;;21.75;8.60;;;;;;;13.41;100.00;101848.13;5079129;28;20032;-69
2023/05/23 04:13:47;;;;;;;22.00;8.90;;;;;;;13.38;100.00;101837.50;5081368;28;20387;-69
2023/05/23 04:16:12;;;;;;;21.35;8.85;;;;;;;13.45;100.00;101838.44;5082252;28;20467;-66
2023/05/23 04:18:38;;;;;;;22.70;9.35;;;;;;;13.41;100.00;101846.41;5082384;28;20387;-70
2023/05/23 04:21:03;;;;;;;21.55;9.05;;;;;;;13.42;100.00;101850.81;5080312;28;20422;-66
2023/05/23 04:23:29;;;;;;;21.25;9.02;;;;;;;13.41;100.00;101853.44;5080979;28;20027;-68
2023/05/23 04:25:56;;;;;;;22.63;8.90;;;;;;;13.36;100.00;101844.56;5077758;28;20602;-66
2023/05/23 04:28:21;;;;;;;21.88;9.60;;;;;;;13.36;100.00;101850.75;5082507;28;20384;-66
2023/05/23 04:30:48;;;;;;;22.48;10.07;;;;;;;13.30;100.00;101855.13;5082882;28;20035;-66
2023/05/23 04:33:13;;;;;;;23.60;10.75;;;;;;;13.35;100.00;101853.41;5078836;28;20580;-65
2023/05/23 04:35:39;;;;;;;23.45;10.93;;;;;;;13.37;100.00;101856.97;5079837;28;20147;-66
2023/05/23 04:38:05;;;;;;;26.92;12.00;;;;;;;13.37;100.00;101862.28;5079960;28;20021;-66
2023/05/23 04:40:30;;;;;;;25.63;11.25;;;;;;;13.39;100.00;101855.22;5081270;28;20028;-66
2023/05/23 04:42:56;;;;;;;25.77;11.68;;;;;;;13.45;100.00;101865.00;5077881;28;20125;-66
2023/05/23 04:45:22;;;;;;;25.15;11.52;;;;;;;13.35;100.00;101870.25;5082547;28;20035;-65
2023/05/23 04:47:47;;;;;;;25.30;11.73;;;;;;;13.35;100.00;101874.66;5078726;28;20033;-66
2023/05/23 04:50:15;;;;;;;28.88;12.30;;;;;;;13.39;100.00;101881.78;5082734;28;20421;-66
2023/05/23 04:52:41;;;;;;;25.08;11.75;;;;;;;13.37;100.00;101876.44;5079330;28;20039;-66
2023/05/23 04:55:07;;;;;;;27.15;12.07;;;;;;;13.46;100.00;101869.44;5077467;28;20032;-67
2023/05/23 04:57:33;;;;;;;28.23;13.10;;;;;;;13.38;100.00;101885.28;5078357;28;20051;-66
2023/05/23 04:59:59;;;;;;;28.60;12.73;;;;;;;13.40;100.00;101883.56;5078566;28;20029;-66
2023/05/23 05:02:25;;;;;;;28.88;13.00;;;;;;;13.33;100.00;101885.22;5078775;28;20032;-65
2023/05/23 05:04:51;;;;;;;29.48;13.70;;;;;;;13.37;100.00;101886.19;5075019;28;20039;-67
2023/05/23 05:07:16;;;;;;;28.50;13.60;;;;;;;13.33;100.00;101892.31;5077760;28;20032;-66
2023/05/23 05:09:42;;;;;;;30.83;13.90;;;;;;;13.30;100.00;101902.91;5078106;28;20046;-67
2023/05/23 05:12:07;;;;;;;30.25;13.50;;;;;;;13.36;100.00;101897.69;5080192;28;20374;-68
2023/05/23 05:14:33;;;;;;;29.67;14.23;;;;;;;13.33;100.00;101903.81;5080405;28;20032;-67
2023/05/23 05:16:58;;;;;;;30.38;13.65;;;;;;;13.38;100.00;101899.50;5079284;28;20043;-66
2023/05/23 05:19:23;;;;;;;29.85;12.98;;;;;;;13.40;100.00;101904.81;5080464;28;20467;-66
2023/05/23 05:21:49;;;;;;;29.75;13.32;;;;;;;13.29;100.00;101906.44;5081477;28;20028;-68
2023/05/23 05:24:15;;;;;;;29.60;13.05;;;;;;;13.27;100.00;101897.56;5079867;28;20055;-66
2023/05/23 05:26:41;;;;;;;31.20;13.00;;;;;;;13.35;100.00;101914.47;5080166;28;20127;-68
2023/05/23 05:29:06;;;;;;;30.60;13.90;;;;;;;13.12;100.00;101915.13;5080290;28;20073;-66
2023/05/23 05:31:32;;;;;;;30.65;13.45;;;;;;;13.04;100.00;101911.47;5077248;28;20025;-68
2023/05/23 05:33:57;;;;;;;28.50;12.32;;;;;;;13.03;100.00;101915.00;5080162;28;20031;-68
2023/05/23 05:36:23;;;;;;;32.28;13.48;;;;;;;13.02;100.00;101919.44;5076984;28;20036;-68
2023/05/23 05:38:48;;;;;;;30.48;12.90;;;;;;;13.03;100.00;101920.31;5077536;28;20036;-67
2023/05/23 05:41:14;;;;;;;29.58;12.80;;;;;;;13.01;100.00;101917.63;5081471;28;20062;-68
2023/05/23 05:43:39;;;;;;;31.63;12.98;;;;;;;12.98;100.00;101928.22;5079041;28;20426;-69
2023/05/23 05:46:04;;;;;;;29.63;12.18;;;;;;;13.03;100.00;101925.63;5079674;28;20380;-68
2023/05/23 05:48:30;;;;;;;28.40;12.10;;;;;;;12.99;100.00;101931.75;5078804;28;20399;-68
2023/05/23 05:50:55;;;;;;;28.48;11.35;;;;;;;12.97;100.00;101937.06;5079000;28;20029;-69
2023/05/23 05:53:21;;;;;;;29.00;11.45;;;;;;;12.97;100.00;101938.81;5061839;28;20020;-67
2023/05/23 05:55:46;;;;;;;30.00;11.57;;;;;;;12.90;100.00;101937.84;5079295;28;20127;-71
2023/05/23 05:58:11;;;;;;;27.70;11.25;;;;;;;12.95;100.00;101936.16;5080407;28;20072;-69
2023/05/23 06:00:40;;;;;;;29.00;11.75;;;;;;;12.90;100.00;101948.47;5080139;28;20052;-68
2023/05/23 06:03:07;;;;;;;31.30;12.10;;;;;;;12.86;100.00;101944.91;5077671;28;20379;-68
2023/05/23 06:05:33;;;;;;;31.40;11.80;;;;;;;12.86;100.00;101949.31;5080767;28;20027;-68
2023/05/23 06:07:58;;;;;;;26.92;10.68;;;;;;;12.82;100.00;101953.69;5078455;28;20041;-68
2023/05/23 06:10:24;;;;;;;28.70;10.50;;;;;;;12.79;100.00;101952.78;5079160;28;20020;-68
2023/05/23 06:12:49;;;;;;;25.25;10.02;;;;;;;12.79;100.00;101964.25;5078333;28;20075;-68
2023/05/23 06:15:15;;;;;;;24.92;9.68;;;;;;;12.72;100.00;101952.66;5076189;28;20123;-69
2023/05/23 06:17:41;;;;;;;23.20;9.13;;;;;;;12.82;100.00;101961.66;5081102;28;20024;-69
2023/05/23 06:20:07;;;;;;;24.75;8.95;;;;;;;12.72;100.00;101963.28;5078779;28;20049;-69
2023/05/23 06:22:32;;;;;;;24.85;9.13;;;;;;;12.71;100.00;101965.91;5079083;28;20020;-69
2023/05/23 06:24:58;;;;;;;24.20;8.27;;;;;;;12.75;100.00;101972.16;5074225;28;20032;-69
2023/05/23 06:27:23;;;;;;;23.17;8.73;;;;;;;12.79;100.00;101974.00;5076453;28;20113;-68
2023/05/23 06:29:49;;;;;;;22.35;7.80;;;;;;;12.76;100.00;101973.97;5080278;28;20059;-69
2023/05/23 06:32:14;;;;;;;22.70;8.18;;;;;;;12.75;100.00;101977.47;5077070;28;20111;-69
2023/05/23 06:34:40;;;;;;;23.75;8.05;;;;;;;12.79;100.00;101984.59;5079521;28;20074;-68
2023/05/23 06:37:05;;;;;;;23.73;8.05;;;;;;;12.84;100.00;101978.50;5078301;28;20037;-69
2023/05/23 06:39:31;;;;;;;22.00;7.63;;;;;;;12.76;100.00;101980.16;5078974;28;20031;-67
2023/05/23 06:41:56;;;;;;;23.02;7.75;;;;;;;12.77;100.00;101983.69;5077171;28;20035;-69
2023/05/23 06:44:21;;;;;;;22.00;7.85;;;;;;;12.77;100.00;101991.63;5077503;28;20024;-69
2023/05/23 06:46:47;;;;;;;22.40;8.00;;;;;;;12.74;100.00;101992.47;5076291;28;20037;-69
2023/05/23 06:49:13;;;;;;;22.38;7.93;;;;;;;12.71;100.00;101996.00;5079122;28;20036;-68
2023/05/23 06:51:39;;;;;;;22.50;7.93;;;;;;;12.72;100.00;101997.75;5079772;28;20528;-70
2023/05/23 06:54:04;;;;;;;22.77;7.55;;;;;;;12.68;100.00;102003.00;5079028;28;20029;-68
2023/05/23 06:56:30;;;;;;;23.77;7.80;;;;;;;12.64;100.00;102006.50;5298558;22;20084;-67
2023/05/23 06:58:55;;;;;;;23.08;7.18;;;;;;;12.69;100.00;102013.66;5024753;28;20038;-65
2023/05/23 07:01:21;;;;;;;22.02;7.15;;;;;;;12.76;100.00;102014.63;5026149;28;20053;-69
2023/05/23 07:03:46;;;;;;;21.80;7.30;;;;;;;12.80;100.00;102029.72;5021221;28;20113;-67
2023/05/23 07:06:12;;;;;;;21.30;7.13;;;;;;;12.74;100.00;102026.97;5019042;28;20038;-67
2023/05/23 07:08:37;;;;;;;21.52;7.10;;;;;;;12.80;100.00;102028.81;5021808;28;20038;-68
2023/05/23 07:11:03;;;;;;;22.08;6.90;;;;;;;12.91;100.00;102025.44;5028627;28;20072;-66
2023/05/23 07:13:29;;;;;;;24.42;7.13;;;;;;;12.98;100.00;102023.78;5023490;28;20042;-66
2023/05/23 07:15:55;;;;;;;22.30;7.60;;;;;;;13.15;100.00;102024.00;5027505;28;20072;-66
2023/05/23 07:18:20;;;;;;;22.27;6.85;;;;;;;13.42;100.00;102033.19;5026740;28;20375;-65
2023/05/23 07:20:46;;;;;;;22.35;6.88;;;;;;;13.52;100.00;102026.22;5023582;28;20029;-69
2023/05/23 07:23:11;;;;;;;21.92;6.60;;;;;;;13.51;100.00;102032.41;5007329;28;20034;-67
2023/05/23 07:25:39;;;;;;;21.58;6.32;;;;;;;13.62;100.00;102033.41;5029217;28;20025;-67
2023/05/23 07:28:04;;;;;;;20.55;6.15;;;;;;;13.75;100.00;102037.09;5024559;28;20030;-68
2023/05/23 07:30:29;;;;;;;22.02;7.03;;;;;;;13.95;100.00;102047.94;5028151;28;20045;-68
2023/05/23 07:32:55;;;;;;;21.38;6.05;;;;;;;14.16;100.00;102031.25;5024582;28;20029;-68
2023/05/23 07:35:24;;;;;;;22.15;6.60;;;;;;;14.38;100.00;102036.75;5025766;28;20391;-67
2023/05/23 07:37:51;;;;;;;21.42;6.30;;;;;;;14.45;100.00;102043.91;5010077;28;20025;-68
2023/05/23 07:40:16;;;;;;;23.58;6.75;;;;;;;14.60;100.00;102041.31;5023704;28;20026;-68
2023/05/23 07:42:41;;;;;;;21.23;6.18;;;;;;;14.56;100.00;102047.53;5024374;28;20037;-69
2023/05/23 07:45:07;;;;;;;22.10;6.10;;;;;;;14.59;100.00;102046.63;5022534;28;20121;-68
2023/05/23 07:47:32;;;;;;;21.38;7.15;;;;;;;14.68;100.00;102051.16;5025323;28;20041;-69
2023/05/23 07:50:01;;;;;;;21.77;6.32;;;;;;;14.76;100.00;102046.78;5026618;28;20100;-68
2023/05/23 07:52:27;;;;;;;21.15;6.75;;;;;;;14.51;100.00;102043.06;5025876;28;20021;-68
2023/05/23 07:54:52;;;;;;;21.95;6.70;;;;;;;14.50;100.00;102052.78;5017845;28;20030;-68
2023/05/23 07:57:18;;;;;;;22.63;6.82;;;;;;;14.45;100.00;102066.06;5008785;28;20077;-69
2023/05/23 07:59:43;;;;;;;21.95;6.72;;;;;;;14.41;100.00;102061.59;5001266;28;20469;-68
2023/05/23 08:02:08;;;;;;;22.55;6.75;;;;;;;14.60;100.00;102056.41;5001695;28;20444;-68
2023/05/23 08:04:34;;;;;;;22.40;6.50;;;;;;;14.77;100.00;102057.44;5001467;28;20031;-66
2023/05/23 08:07:00;;;;;;;20.25;6.22;;;;;;;14.83;100.00;102064.59;5002055;28;20032;-68
2023/05/23 08:09:25;;;;;;;21.23;6.30;;;;;;;14.93;100.00;102062.88;4982907;28;20022;-67
2023/05/23 08:11:51;;;;;;;20.10;6.70;;;;;;;14.83;100.00;102067.25;5002365;28;20022;-69
2023/05/23 08:14:16;;;;;;;23.83;6.40;;;;;;;14.84;100.00;102069.03;4998634;28;20026;-66
2023/05/23 08:16:42;;;;;;;21.90;6.70;;;;;;;15.05;100.00;102068.25;5002106;28;20026;-69
2023/05/23 08:19:07;;;;;;;21.70;6.75;;;;;;;15.23;100.00;102071.88;5002267;28;20105;-69
2023/05/23 08:21:35;;;;;;;22.13;7.43;;;;;;;15.43;100.00;102074.63;5000192;28;20146;-67
2023/05/23 08:24:00;;;;;;;22.23;6.63;;;;;;;15.52;100.00;102075.56;5002186;28;20030;-69
2023/05/23 08:26:29;;;;;;;21.58;7.07;;;;;;;15.52;100.00;102070.25;5001215;28;20033;-69
2023/05/23 08:28:54;;;;;;;20.40;6.45;;;;;;;15.38;100.00;102071.03;5001525;28;20027;-68
2023/05/23 08:31:20;;;;;;;21.55;6.68;;;;;;;15.21;100.00;102074.53;5001660;28;20022;-67
2023/05/23 08:33:46;;;;;;;21.00;6.57;;;;;;;15.17;100.00;102067.41;5001029;28;20030;-68
2023/05/23 08:36:11;;;;;;;20.38;5.90;;;;;;;15.02;100.00;102072.69;5001959;28;20030;-67
2023/05/23 08:38:36;;;;;;;20.40;6.15;;;;;;;14.87;100.00;102071.72;5001871;28;20038;-67
2023/05/23 08:41:06;;;;;;;21.42;6.93;;;;;;;14.76;100.00;102084.94;5001768;28;20030;-67
2023/05/23 08:43:31;;;;;;;23.23;6.97;;;;;;;14.78;100.00;102082.28;5002811;28;20038;-68
2023/05/23 08:45:57;;;;;;;20.80;6.47;;;;;;;14.87;100.00;102077.03;5005422;28;20037;-67
2023/05/23 08:48:25;;;;;;;21.50;6.25;;;;;;;15.03;100.00;102078.00;5004832;28;20143;-68
2023/05/23 08:50:52;;;;;;;21.50;6.15;;;;;;;15.29;100.00;102085.22;5005150;28;20029;-68
2023/05/23 08:53:20;;;;;;;19.83;6.05;;;;;;;15.31;100.00;102088.81;5006304;28;20038;-66
2023/05/23 08:55:50;;;;;;;20.10;6.00;;;;;;;15.34;100.00;102079.03;5004970;28;20484;-68
2023/05/23 08:58:19;;;;;;;20.33;5.82;;;;;;;15.28;100.00;102087.00;5005156;28;20054;-68
2023/05/23 09:00:46;;;;;;;20.77;5.53;;;;;;;15.47;100.00;102095.09;5005099;28;20038;-68
2023/05/23 09:03:11;;;;;;;18.75;5.43;;;;;;;15.40;100.00;102094.16;5002579;28;20080;-69
2023/05/23 09:05:37;;;;;;;19.42;5.07;;;;;;;15.44;100.00;102097.75;5006282;28;20038;-68
2023/05/23 09:08:02;;;;;;;17.75;4.68;;;;;;;15.78;100.00;102104.09;5006314;28;20033;-69
2023/05/23 09:10:28;;;;;;;19.80;5.07;;;;;;;16.31;100.00;102105.06;5004114;28;20034;-68
2023/05/23 09:12:54;;;;;;;19.50;5.30;;;;;;;16.44;100.00;102102.41;5004618;28;20081;-69
2023/05/23 09:15:21;;;;;;;19.42;4.90;;;;;;;16.10;100.00;102108.59;5003222;28;20460;-69
2023/05/23 09:17:46;;;;;;;17.77;4.78;;;;;;;15.59;100.00;102108.44;5004739;28;20022;-68
2023/05/23 09:20:14;;;;;;;18.08;4.50;;;;;;;15.33;100.00;102090.59;5005201;28;20439;-69
2023/05/23 09:22:40;;;;;;;19.15;4.50;;;;;;;15.08;100.00;102112.66;5003895;28;20465;-68
2023/05/23 09:25:06;;;;;;;20.30;4.68;;;;;;;15.03;100.00;102111.72;5004927;28;20113;-69
2023/05/23 09:27:32;;;;;;;19.30;4.68;;;;;;;15.35;100.00;102119.91;5005675;28;20434;-68
2023/05/23 09:29:57;;;;;;;19.98;4.68;;;;;;;15.61;100.00;102113.78;5004894;28;20026;-68
2023/05/23 09:32:22;;;;;;;21.02;4.03;;;;;;;15.93;100.00;102118.34;5001509;28;20545;-68
2023/05/23 09:34:56;;;;;;;20.08;4.47;;;;;;;16.21;100.00;102120.19;5005459;28;20037;-68
2023/05/23 09:37:28;;;;;;;19.45;4.28;;;;;;;16.09;100.00;102114.84;5003664;28;20061;-68
2023/05/23 09:39:53;;;;;;;22.30;4.23;;;;;;;16.00;100.00;102115.72;5003859;28;20037;-68
2023/05/23 09:42:22;;;;;;;21.77;4.25;;;;;;;15.98;95.43;102121.94;5003259;28;20121;-68
2023/05/23 09:44:48;;;;;;;20.98;4.22;;;;;;;15.88;94.93;102113.00;4987152;28;20034;-62
2023/05/23 09:47:16;;;;;;;21.05;4.32;;;;;;;15.91;97.70;102120.13;5003780;28;20035;-62
2023/05/23 09:49:45;;;;;;;18.63;3.92;;;;;;;16.25;87.37;102126.44;5003590;28;20034;-62
2023/05/23 09:52:12;;;;;;;20.73;4.32;;;;;;;16.72;85.79;102112.16;5003326;28;20027;-62
2023/05/23 09:54:38;;;;;;;19.20;3.60;;;;;;;17.16;80.05;102117.47;5003478;28;20034;-62
2023/05/23 09:57:09;;;;;;;20.65;3.92;;;;;;;17.11;75.98;102119.25;5004164;28;20065;-62
2023/05/23 09:59:38;;;;;;;18.38;3.92;;;;;;;17.11;76.68;102119.25;5004638;28;20034;-62
2023/05/23 10:02:06;;;;;;;19.55;3.72;;;;;;;17.21;76.11;102127.25;5004131;28;20057;-62
2023/05/23 10:04:33;;;;;;;19.38;3.75;;;;;;;17.32;72.25;102123.66;5002935;28;20401;-62
2023/05/23 10:07:09;;;;;;;19.27;3.92;;;;;;;17.72;69.46;102120.78;5004179;28;20117;-63
2023/05/23 10:09:38;;;;;;;18.17;3.80;;;;;;;18.38;65.98;102120.41;5003552;28;20085;-62
2023/05/23 10:12:19;;;;;;;19.58;3.55;;;;;;;20.15;63.79;102113.91;5005053;28;20441;-63
2023/05/23 10:14:53;;;;;;;15.63;3.25;;;;;;;22.13;52.33;102116.34;5004280;28;20027;-62
2023/05/23 10:17:28;;;;;;;18.52;3.72;;;;;;;22.77;48.79;102110.28;5003788;28;20040;-62
2023/05/23 10:20:02;;;;;;;18.88;3.67;;;;;;;23.02;47.60;102107.78;5004109;28;20036;-65
2023/05/23 10:22:28;;;;;;;19.42;3.70;;;;;;;22.23;48.25;102123.28;5002142;28;20331;-63
2023/05/23 10:24:54;;;;;;;18.40;3.80;;;;;;;21.06;49.53;102105.19;5003355;28;20390;-62
2023/05/23 10:27:20;;;;;;;19.20;3.90;;;;;;;20.03;53.02;102121.22;5003446;28;20046;-63
2023/05/23 10:29:46;;;;;;;16.98;3.63;;;;;;;20.52;51.64;102118.69;5004040;28;20030;-62
2023/05/23 10:32:13;;;;;;;19.77;3.70;;;;;;;22.72;47.34;102131.09;4986749;28;20496;-65
2023/05/23 10:35:00;;;;;;;19.35;3.70;;;;;;;22.51;45.01;102122.63;5003251;28;20503;-64
2023/05/23 10:37:38;;;;;;;19.10;3.92;;;;;;;22.10;44.99;102117.28;5003812;28;20392;-63
2023/05/23 10:40:18;;;;;;;16.52;3.50;;;;;;;22.73;47.27;102120.28;5003924;28;20022;-63
2023/05/23 10:43:09;;;;;;;17.63;3.65;;;;;;;23.43;44.79;102121.03;5004142;28;20033;-62
2023/05/23 10:45:42;;;;;;;16.67;3.70;;;;;;;23.23;45.15;102129.75;5000567;28;20030;-63
2023/05/23 10:48:36;;;;;;;;;;;;;;;25.24;44.10;102116.00;5004079;28;20038;-63
2023/05/23 10:51:09;;;;;;;19.38;4.00;;;;;;;24.13;40.59;102119.81;4971695;28;19921;-62
2023/05/23 10:53:37;;;;;;;16.75;3.75;;;;;;;23.76;41.43;102121.84;5002601;28;20494;-62
2023/05/23 10:56:07;;;;;;;19.95;3.90;;;;;;;23.99;41.83;102122.97;5002823;28;20034;-62
2023/05/23 10:58:34;;;;;;;17.85;3.72;;;;;;;24.64;38.06;102124.44;5003040;28;20053;-62
2023/05/23 11:01:12;;;;;;;17.30;3.60;;;;;;;24.33;39.16;102127.28;5002368;28;20109;-62
2023/05/23 11:03:46;;;;;;;19.27;3.70;;;;;;;22.94;40.87;102115.22;5002780;28;20029;-62
2023/05/23 11:06:37;;;;;;;17.58;3.70;;;;;;;22.29;42.40;102111.47;5003468;28;20472;-64